createdAt,value
2023-04-28T00:03:34.932Z,10.40
2023-04-28T00:08:39.106Z,10.45
2023-04-28T00:13:43.405Z,9.65
2023-04-28T00:18:48.904Z,11.07
2023-04-28T00:23:52.981Z,11.57
2023-04-28T00:28:57.064Z,9.32
2023-04-28T00:34:02.535Z,9.23
2023-04-28T00:39:06.731Z,11.23
2023-04-28T00:44:10.842Z,12.13
2023-04-28T00:49:17.493Z,9.95
2023-04-28T00:54:21.859Z,9.55
2023-04-28T00:59:25.993Z,10.13
2023-04-28T01:04:32.119Z,8.80
2023-04-28T01:09:36.459Z,9.20
2023-04-28T01:14:41.446Z,10.60
2023-04-28T01:19:47.130Z,9.93
2023-04-28T01:24:52.686Z,10.20
2023-04-28T01:29:57.412Z,14.18
2023-04-28T01:35:01.950Z,10.07
2023-04-28T01:40:09.336Z,11.18
2023-04-28T01:45:14.106Z,8.55
2023-04-28T01:50:18.271Z,12.60
2023-04-28T01:55:23.670Z,11.18
2023-04-28T02:00:28.457Z,9.82
2023-04-28T02:05:32.811Z,10.50
2023-04-28T02:10:38.549Z,13.55
2023-04-28T02:15:42.810Z,10.40
2023-04-28T02:20:46.934Z,11.05
2023-04-28T02:25:52.310Z,12.10
2023-04-28T02:31:06.155Z,12.32
2023-04-28T02:36:11.519Z,11.82
2023-04-28T02:41:16.912Z,13.35
2023-04-28T02:46:21.125Z,10.23
2023-04-28T02:51:25.235Z,12.20
2023-04-28T02:56:31.031Z,10.13
2023-04-28T03:01:36.440Z,13.60
2023-04-28T03:06:41.006Z,16.38
2023-04-28T03:11:46.386Z,12.55
2023-04-28T03:16:51.380Z,10.77
2023-04-28T03:21:55.411Z,14.00
2023-04-28T03:27:02.250Z,12.50
2023-04-28T03:32:07.900Z,12.20
2023-04-28T03:37:12.325Z,12.52
2023-04-28T03:42:17.782Z,11.27
2023-04-28T03:47:44.725Z,12.95
2023-04-28T03:52:48.902Z,13.90
2023-04-28T03:57:54.502Z,13.57
2023-04-28T04:02:58.679Z,14.43
2023-04-28T04:08:03.172Z,13.30
2023-04-28T04:13:08.597Z,17.20
2023-04-28T04:18:12.696Z,17.40
2023-04-28T04:23:39.593Z,14.68
2023-04-28T04:28:44.967Z,14.68
2023-04-28T04:33:49.101Z,15.23
2023-04-28T04:38:54.874Z,12.55
2023-04-28T04:44:01.116Z,19.30
2023-04-28T04:49:13.012Z,14.25
2023-04-28T04:54:17.479Z,12.13
2023-04-28T04:59:23.436Z,15.10
2023-04-28T05:04:37.484Z,15.63
2023-04-28T05:09:44.226Z,17.98
2023-04-28T05:14:50.389Z,14.27
2023-04-28T05:19:57.185Z,13.32
2023-04-28T05:25:01.802Z,12.32
2023-04-28T05:30:09.457Z,17.17
2023-04-28T05:35:13.818Z,14.77
2023-04-28T05:40:18.187Z,12.02
2023-04-28T05:45:23.741Z,13.75
2023-04-28T05:50:27.946Z,15.10
2023-04-28T05:55:32.353Z,16.15
2023-04-28T06:00:38.004Z,13.07
2023-04-28T06:05:42.473Z,12.95
2023-04-28T06:10:47.463Z,15.65
2023-04-28T06:15:53.073Z,16.70
2023-04-28T06:20:57.198Z,16.02
2023-04-28T06:26:01.708Z,13.38
2023-04-28T06:31:07.832Z,15.10
2023-04-28T06:36:14.001Z,14.45
2023-04-28T06:41:18.129Z,14.70
2023-04-28T06:46:27.041Z,12.80
2023-04-28T06:51:32.953Z,14.75
2023-04-28T06:56:37.482Z,14.45
2023-04-28T07:01:43.007Z,18.02
2023-04-28T07:06:47.102Z,13.98
2023-04-28T07:11:51.077Z,12.98
2023-04-28T07:16:56.496Z,14.00
2023-04-28T07:22:00.677Z,15.52
2023-04-28T07:27:05.115Z,16.27
2023-04-28T07:32:11.533Z,16.35
2023-04-28T07:37:15.846Z,16.13
2023-04-28T07:42:20.223Z,13.38
2023-04-28T07:47:26.730Z,14.75
2023-04-28T07:52:30.768Z,12.00
2023-04-28T07:57:34.900Z,12.38
2023-04-28T08:02:40.567Z,14.27
2023-04-28T08:07:45.231Z,10.82
2023-04-28T08:12:49.388Z,13.35
2023-04-28T08:17:55.129Z,14.70
2023-04-28T08:22:59.284Z,16.27
2023-04-28T08:28:06.236Z,15.07
2023-04-28T08:33:11.665Z,14.18
2023-04-28T08:38:17.625Z,15.25
2023-04-28T08:43:21.959Z,13.73
2023-04-28T08:48:28.847Z,16.50
2023-04-28T08:53:34.525Z,18.73
2023-04-28T08:58:43.608Z,17.15
2023-04-28T09:03:49.469Z,19.30
2023-04-28T09:08:54.177Z,18.80
2023-04-28T09:14:14.260Z,22.20
2023-04-28T09:19:20.376Z,20.75
2023-04-28T09:24:32.576Z,22.63
2023-04-28T09:29:36.680Z,22.45
2023-04-28T09:34:46.472Z,17.15
2023-04-28T09:39:53.761Z,19.52
2023-04-28T09:44:59.128Z,20.73
2023-04-28T09:50:09.259Z,18.77
2023-04-28T09:55:17.782Z,18.55
2023-04-28T10:00:22.315Z,20.17
2023-04-28T10:05:28.003Z,19.17
2023-04-28T10:10:32.921Z,24.40
2023-04-28T10:15:38.575Z,26.02
2023-04-28T10:20:46.671Z,27.85
2023-04-28T10:25:56.204Z,24.95
2023-04-28T10:31:13.347Z,30.10
2023-04-28T10:36:55.074Z,26.05
2023-04-28T10:41:59.348Z,24.42
2023-04-28T10:47:05.026Z,28.13
2023-04-28T10:52:50.535Z,28.80
2023-04-28T10:58:34.513Z,19.73
2023-04-28T11:03:51.794Z,22.42
2023-04-28T11:09:00.760Z,19.73
2023-04-28T11:14:32.679Z,17.10
2023-04-28T11:19:39.050Z,18.13
2023-04-28T11:24:58.211Z,14.43
2023-04-28T11:30:02.667Z,13.50
2023-04-28T11:35:10.099Z,10.50
2023-04-28T11:40:17.767Z,8.88
2023-04-28T11:45:21.975Z,5.35
2023-04-28T11:50:37.758Z,3.58
2023-04-28T11:55:43.166Z,4.00
2023-04-28T12:00:47.174Z,2.78
2023-04-28T12:05:51.322Z,3.08
2023-04-28T12:11:11.087Z,2.55
2023-04-28T12:16:15.331Z,2.72
2023-04-28T12:21:23.253Z,3.10
2023-04-28T12:26:28.746Z,2.28
2023-04-28T12:31:32.840Z,2.85
2023-04-28T12:36:36.909Z,5.38
2023-04-28T12:41:42.384Z,3.20
2023-04-28T12:46:46.449Z,3.88
2023-04-28T12:51:50.928Z,4.15
2023-04-28T12:56:56.493Z,4.15
2023-04-28T13:02:00.685Z,4.63
2023-04-28T13:07:07.269Z,5.00
2023-04-28T13:12:13.658Z,3.83
2023-04-28T13:17:18.759Z,5.80
2023-04-28T13:22:22.901Z,4.72
2023-04-28T13:27:30.514Z,3.78
2023-04-28T13:32:34.544Z,4.93
2023-04-28T13:37:42.638Z,5.50
2023-04-28T13:42:48.020Z,4.75
2023-04-28T13:47:52.188Z,4.75
2023-04-28T13:52:56.200Z,5.43
2023-04-28T13:58:04.733Z,4.30
2023-04-28T14:03:09.795Z,6.15
2023-04-28T14:08:14.026Z,4.30
2023-04-28T14:13:20.224Z,3.08
2023-04-28T14:18:24.467Z,5.40
2023-04-28T14:23:28.756Z,4.53
2023-04-28T14:28:34.478Z,5.30
2023-04-28T14:33:38.620Z,4.72
2023-04-28T14:38:42.777Z,3.85
2023-04-28T14:43:48.119Z,3.53
2023-04-28T14:48:52.506Z,3.65
2023-04-28T14:53:56.677Z,5.78
2023-04-28T14:59:02.063Z,4.03
2023-04-28T15:04:06.900Z,4.30
2023-04-28T15:09:11.874Z,4.90
2023-04-28T15:14:19.082Z,6.57
2023-04-28T15:19:23.565Z,4.97
2023-04-28T15:24:27.612Z,4.72
2023-04-28T15:29:33.159Z,4.07
2023-04-28T15:34:37.275Z,5.28
2023-04-28T15:39:41.373Z,5.82
2023-04-28T15:44:47.291Z,10.13
2023-04-28T15:49:51.482Z,5.90
2023-04-28T15:54:56.867Z,7.13
2023-04-28T16:00:03.447Z,6.97
2023-04-28T16:05:12.536Z,7.60
2023-04-28T16:10:17.793Z,5.20
2023-04-28T16:15:23.384Z,5.88
2023-04-28T16:20:27.571Z,5.45
2023-04-28T16:25:32.250Z,4.38
2023-04-28T16:30:37.793Z,6.38
2023-04-28T16:35:41.921Z,5.18
2023-04-28T16:40:46.093Z,4.22
2023-04-28T16:45:51.898Z,5.45
2023-04-28T16:50:56.091Z,5.00
2023-04-28T16:56:00.145Z,4.53
2023-04-28T17:01:05.806Z,4.13
2023-04-28T17:06:10.008Z,5.05
2023-04-28T17:11:18.609Z,3.45
2023-04-28T17:16:24.160Z,2.53
2023-04-28T17:21:29.473Z,2.58
2023-04-28T17:26:33.555Z,5.57
2023-04-28T17:31:39.305Z,5.95
2023-04-28T17:36:43.519Z,4.97
2023-04-28T17:41:47.523Z,8.70
2023-04-28T17:46:52.989Z,5.85
2023-04-28T17:51:57.102Z,6.57
2023-04-28T17:57:02.425Z,6.18
2023-04-28T18:02:11.102Z,7.57
2023-04-28T18:07:15.344Z,7.85
2023-04-28T18:12:19.472Z,9.18
2023-04-28T18:17:26.302Z,6.07
2023-04-28T18:22:30.892Z,5.07
2023-04-28T18:27:34.918Z,7.20
2023-04-28T18:32:40.715Z,4.90
2023-04-28T18:37:45.080Z,6.47
2023-04-28T18:42:49.644Z,7.63
2023-04-28T18:47:55.256Z,6.63
2023-04-28T18:53:01.128Z,6.10
2023-04-28T18:58:05.266Z,6.60
2023-04-28T19:03:10.923Z,7.30
2023-04-28T19:08:15.173Z,7.07
2023-04-28T19:13:19.159Z,6.13
2023-04-28T19:18:24.535Z,9.05
2023-04-28T19:23:29.471Z,13.05
2023-04-28T19:28:33.553Z,11.82
2023-04-28T19:33:39.027Z,13.32
2023-04-28T19:38:43.198Z,15.82
2023-04-28T19:43:47.323Z,19.83
2023-04-28T19:48:53.629Z,23.42
2023-04-28T19:53:57.930Z,27.40
2023-04-28T19:59:02.049Z,35.95
2023-04-28T20:04:07.692Z,31.63
2023-04-28T20:09:11.842Z,32.38
2023-04-28T20:14:15.870Z,33.45
2023-04-28T20:19:21.422Z,41.08
2023-04-28T20:24:25.985Z,31.77
2023-04-28T20:29:31.537Z,29.85
2023-04-28T20:34:38.531Z,34.55
2023-04-28T20:44:46.603Z,31.67
2023-04-28T20:49:52.563Z,34.78
2023-04-28T20:54:57.039Z,30.73
2023-04-28T21:00:01.149Z,27.67
2023-04-28T21:05:07.511Z,27.90
2023-04-28T21:10:11.937Z,22.90
2023-04-28T21:15:16.209Z,23.73
2023-04-28T21:20:21.852Z,28.27
2023-04-28T21:25:26.303Z,24.38
2023-04-28T21:30:30.431Z,26.20
2023-04-28T21:35:36.896Z,30.60
2023-04-28T21:40:41.060Z,28.58
2023-04-28T21:45:45.063Z,27.67
2023-04-28T21:50:50.607Z,26.50
2023-04-28T21:55:54.632Z,35.22
2023-04-28T22:01:01.212Z,33.45
2023-04-28T22:06:07.196Z,32.35
2023-04-28T22:11:11.490Z,36.30
2023-04-28T22:16:15.602Z,39.08
2023-04-28T22:21:21.237Z,43.03
2023-04-28T22:26:25.904Z,49.45
2023-04-28T22:31:30.083Z,48.28
2023-04-28T22:36:39.190Z,36.50
2023-04-28T22:41:43.564Z,35.65
2023-04-28T22:46:47.717Z,33.83
2023-04-28T22:51:53.252Z,35.90
2023-04-28T22:56:57.305Z,36.22
2023-04-28T23:02:02.369Z,35.05
2023-04-28T23:07:08.444Z,32.55
2023-04-28T23:12:12.649Z,36.58
2023-04-28T23:17:16.744Z,34.38
2023-04-28T23:22:22.130Z,31.60
2023-04-28T23:27:26.326Z,37.05
2023-04-28T23:32:30.599Z,36.95
2023-04-28T23:37:36.327Z,39.22
2023-04-28T23:42:42.340Z,37.78
2023-04-28T23:47:46.637Z,35.50
2023-04-28T23:52:52.117Z,34.40
2023-04-28T23:57:56.277Z,34.33
